Cleveland, Ohio
Traffic Map
Current Weather Conditions
Cleveland, Ohio
Clear
Clear
12°
Feels Like: 12°
Wind Chill: 12° Ceiling: Unl
Heat Index: 12° Visibility: 10mi
Dew Point: Wind: 9mph
Humidity: 83% Direction: 150° (SSE)
Pressure: 30.07in Gusts: 0mph
Raw Report DataKBKL 170453Z 15008KT 10SM CLR 12/09 A3007 RMK AO2 SLP183 T01170089 401780117
Traffic Incident Summary
Active as of:
Severity:
Category:
InformationThere was an issue retrieving the traffic information for this location. Please try a different location or try again shortly.
Advertisements
Track Severe Weather on mobile